createdAt,value
2018-03-11T00:00:52.094Z,0.00
2018-03-11T00:01:52.089Z,0.00
2018-03-11T00:02:52.088Z,0.00
2018-03-11T00:03:52.081Z,0.00
2018-03-11T00:04:52.073Z,0.00
2018-03-11T00:05:52.066Z,0.00
2018-03-11T00:06:52.060Z,0.00
2018-03-11T00:07:52.051Z,0.00
2018-03-11T00:08:52.044Z,0.00
2018-03-11T00:09:52.037Z,0.00
2018-03-11T00:10:52.040Z,0.00
2018-03-11T00:11:52.025Z,0.00
2018-03-11T00:12:52.020Z,0.00
2018-03-11T00:13:52.018Z,0.00
2018-03-11T00:14:52.003Z,0.00
2018-03-11T00:15:51.998Z,0.00
2018-03-11T00:16:52.005Z,0.00
2018-03-11T00:17:51.986Z,0.00
2018-03-11T00:18:51.981Z,0.00
2018-03-11T00:19:51.971Z,0.00
2018-03-11T00:20:51.967Z,0.00
2018-03-11T00:21:51.956Z,0.00
2018-03-11T00:22:51.949Z,0.00
2018-03-11T00:23:51.943Z,0.00
2018-03-11T00:24:51.935Z,0.00
2018-03-11T00:25:51.929Z,0.00
2018-03-11T00:26:51.924Z,0.00
2018-03-11T00:27:51.916Z,0.00
2018-03-11T00:28:51.913Z,0.00
2018-03-11T00:29:51.905Z,0.00
2018-03-11T00:30:51.894Z,0.00
2018-03-11T00:31:51.888Z,0.00
2018-03-11T00:32:51.881Z,0.00
2018-03-11T00:33:51.874Z,0.00
2018-03-11T00:34:51.879Z,0.00
2018-03-11T00:35:51.862Z,0.00
2018-03-11T00:36:51.850Z,0.00
2018-03-11T00:37:51.844Z,0.00
2018-03-11T00:38:51.837Z,0.00
2018-03-11T00:39:51.832Z,0.00
2018-03-11T00:40:51.822Z,0.00
2018-03-11T00:41:51.812Z,0.00
2018-03-11T00:42:51.808Z,0.00
2018-03-11T00:43:51.805Z,0.00
2018-03-11T00:44:51.793Z,0.00
2018-03-11T00:45:51.786Z,0.00
2018-03-11T00:46:51.786Z,0.00
2018-03-11T00:47:51.773Z,0.00
2018-03-11T00:48:51.761Z,0.00
2018-03-11T00:49:51.758Z,0.00
2018-03-11T00:50:51.749Z,0.00
2018-03-11T00:51:51.743Z,0.00
2018-03-11T00:52:51.733Z,0.00
2018-03-11T00:53:51.727Z,0.00
2018-03-11T00:54:51.720Z,0.00
2018-03-11T00:55:51.713Z,0.00
2018-03-11T00:56:51.704Z,0.00
2018-03-11T00:57:51.698Z,0.00
2018-03-11T00:58:51.688Z,0.00
2018-03-11T00:59:51.683Z,0.00
2018-03-11T01:00:51.697Z,0.00
2018-03-11T01:01:51.670Z,0.00
2018-03-11T01:02:51.668Z,0.00
2018-03-11T01:03:51.666Z,0.00
2018-03-11T01:04:51.641Z,0.00
2018-03-11T01:05:51.637Z,0.00
2018-03-11T01:06:51.622Z,0.00
2018-03-11T01:07:51.621Z,0.00
2018-03-11T01:08:51.611Z,0.00
2018-03-11T01:09:51.607Z,0.00
2018-03-11T01:10:51.600Z,0.00
2018-03-11T01:11:51.591Z,0.00
2018-03-11T01:12:51.585Z,0.00
2018-03-11T01:13:51.582Z,0.00
2018-03-11T01:14:51.569Z,0.00
2018-03-11T01:15:51.561Z,0.00
2018-03-11T01:16:51.553Z,0.00
2018-03-11T01:17:51.544Z,0.00
2018-03-11T01:18:51.538Z,0.00
2018-03-11T01:19:51.533Z,0.00
2018-03-11T01:20:51.525Z,0.00
2018-03-11T01:21:51.515Z,0.00
2018-03-11T01:22:51.509Z,0.00
2018-03-11T01:23:51.502Z,0.00
2018-03-11T01:24:51.489Z,0.00
2018-03-11T01:25:51.486Z,0.00
2018-03-11T01:26:51.477Z,0.00
2018-03-11T01:27:51.468Z,0.00
2018-03-11T01:28:51.464Z,0.00
2018-03-11T01:29:51.456Z,0.00
2018-03-11T01:30:51.448Z,0.00
2018-03-11T01:31:51.439Z,0.00
2018-03-11T01:32:51.431Z,0.00
2018-03-11T01:33:51.422Z,0.00
2018-03-11T02:05:31.644Z,0.00
2018-03-11T02:06:31.599Z,0.00
2018-03-11T02:08:24.497Z,0.00
2018-03-11T02:09:24.457Z,0.00
2018-03-11T02:11:17.333Z,0.00
2018-03-11T02:12:17.313Z,0.00
2018-03-11T02:14:10.222Z,0.00
2018-03-11T02:15:10.200Z,0.00
2018-03-11T02:17:03.142Z,0.00
2018-03-11T02:18:03.127Z,0.00
2018-03-11T02:19:56.139Z,0.00
2018-03-11T02:20:56.108Z,0.00
2018-03-11T02:22:49.039Z,0.00
2018-03-11T02:23:49.035Z,0.00
2018-03-11T02:25:41.947Z,0.00
2018-03-11T02:26:41.929Z,0.00
2018-03-11T02:28:34.819Z,0.00
2018-03-11T02:29:34.800Z,0.00
2018-03-11T02:31:27.700Z,0.00
2018-03-11T02:32:27.679Z,0.00
2018-03-11T02:34:20.580Z,0.00
2018-03-11T02:35:20.568Z,0.00
2018-03-11T02:37:13.525Z,0.00
2018-03-11T02:38:13.499Z,0.00
2018-03-11T02:40:06.545Z,0.00
2018-03-11T02:41:06.485Z,0.00
2018-03-11T02:42:59.386Z,0.00
2018-03-11T02:43:59.363Z,0.00
2018-03-11T02:45:52.291Z,0.00
2018-03-11T02:46:52.259Z,0.00
2018-03-11T02:48:45.178Z,0.00
2018-03-11T02:49:45.159Z,0.00
2018-03-11T02:51:38.078Z,0.00
2018-03-11T02:52:38.049Z,0.00
2018-03-11T02:54:30.940Z,0.00
2018-03-11T02:55:30.919Z,0.00
2018-03-11T02:57:23.923Z,0.00
2018-03-11T02:58:23.901Z,0.00
2018-03-11T03:00:16.808Z,0.00
2018-03-11T03:01:16.790Z,0.00
2018-03-11T03:03:09.698Z,0.00
2018-03-11T03:04:09.672Z,0.00
2018-03-11T03:06:02.587Z,0.00
2018-03-11T03:07:02.576Z,0.00
2018-03-11T03:08:55.509Z,0.00
2018-03-11T03:09:55.481Z,0.00
2018-03-11T03:11:48.365Z,0.00
2018-03-11T03:12:48.344Z,0.00
2018-03-11T03:14:41.259Z,0.00
2018-03-11T03:15:41.234Z,0.00
2018-03-11T03:17:34.152Z,0.00
2018-03-11T03:18:34.139Z,0.00
2018-03-11T03:20:27.049Z,0.00
2018-03-11T03:21:27.028Z,0.00
2018-03-11T03:23:19.977Z,0.00
2018-03-11T03:24:19.945Z,0.00
2018-03-11T03:26:12.946Z,0.00
2018-03-11T03:27:12.931Z,0.00
2018-03-11T03:29:05.864Z,0.00
2018-03-11T03:30:05.840Z,0.00
2018-03-11T03:31:58.774Z,0.00
2018-03-11T03:32:58.758Z,0.00
2018-03-11T03:34:51.661Z,0.00
2018-03-11T03:35:51.646Z,0.00
2018-03-11T03:37:44.572Z,0.00
2018-03-11T03:38:44.555Z,0.00
2018-03-11T03:40:37.490Z,0.00
2018-03-11T03:41:37.467Z,0.00
2018-03-11T03:43:30.377Z,0.00
2018-03-11T03:44:30.361Z,0.00
2018-03-11T03:46:23.283Z,0.00
2018-03-11T03:47:23.256Z,0.00
2018-03-11T03:49:16.166Z,0.00
2018-03-11T03:50:16.154Z,0.00
2018-03-11T03:52:09.140Z,0.00
2018-03-11T03:53:09.098Z,0.00
2018-03-11T03:55:02.012Z,0.00
2018-03-11T03:56:01.952Z,0.00
2018-03-11T03:57:54.898Z,0.00
2018-03-11T03:58:54.870Z,0.00
2018-03-11T04:00:47.791Z,0.00
2018-03-11T04:01:47.772Z,0.00
2018-03-11T04:03:40.707Z,0.00
2018-03-11T04:04:40.679Z,0.00
2018-03-11T04:06:33.623Z,0.00
2018-03-11T04:07:33.586Z,0.00
2018-03-11T04:09:26.524Z,0.00
2018-03-11T04:10:26.480Z,0.00
2018-03-11T04:12:19.412Z,0.00
2018-03-11T04:13:19.358Z,0.00
2018-03-11T04:15:12.256Z,0.00
2018-03-11T04:16:12.238Z,0.00
2018-03-11T04:18:05.159Z,0.00
2018-03-11T04:19:05.136Z,0.00
2018-03-11T04:20:58.075Z,0.00
2018-03-11T04:21:58.051Z,0.00
2018-03-11T04:23:50.966Z,0.00
2018-03-11T04:24:50.941Z,0.00
2018-03-11T04:26:43.873Z,0.00
2018-03-11T04:27:43.850Z,0.00
2018-03-11T04:29:36.784Z,0.00
2018-03-11T04:30:36.756Z,0.00
2018-03-11T04:32:29.681Z,0.00
2018-03-11T04:33:29.660Z,0.00
2018-03-11T04:35:22.570Z,0.00
2018-03-11T04:36:22.552Z,0.00
2018-03-11T04:38:15.447Z,0.00
2018-03-11T04:39:15.431Z,0.00
2018-03-11T04:41:08.346Z,0.00
2018-03-11T04:42:08.313Z,0.00
2018-03-11T04:44:01.236Z,0.00
2018-03-11T04:45:01.215Z,0.00
2018-03-11T04:46:54.151Z,0.00
2018-03-11T04:47:54.130Z,0.00
2018-03-11T04:49:47.034Z,0.00
2018-03-11T04:50:47.017Z,0.00
2018-03-11T04:52:39.947Z,0.00
2018-03-11T04:53:39.920Z,0.00
2018-03-11T04:55:32.855Z,0.00
2018-03-11T04:56:32.819Z,0.00
2018-03-11T04:58:25.752Z,0.00
2018-03-11T04:59:25.735Z,0.00
2018-03-11T05:01:18.655Z,0.00
2018-03-11T05:02:18.630Z,0.00
2018-03-11T05:04:11.557Z,0.00
2018-03-11T05:05:11.542Z,0.00
2018-03-11T05:07:04.466Z,0.00
2018-03-11T05:08:04.439Z,0.00
2018-03-11T05:09:57.381Z,0.00
2018-03-11T05:10:57.350Z,0.00
2018-03-11T05:12:50.271Z,0.00
2018-03-11T05:13:50.244Z,0.00
2018-03-11T05:15:43.163Z,4.00
2018-03-11T05:16:43.151Z,4.00
2018-03-11T05:18:36.089Z,8.00
2018-03-11T05:19:36.062Z,8.00
2018-03-11T05:21:28.979Z,12.00
2018-03-11T05:22:28.959Z,12.00
2018-03-11T05:24:21.885Z,20.00
2018-03-11T05:25:21.851Z,28.00
2018-03-11T05:27:14.784Z,36.00
2018-03-11T05:28:14.768Z,40.00
2018-03-11T05:30:07.686Z,60.00
2018-03-11T05:31:07.657Z,72.00
2018-03-11T05:33:00.563Z,96.00
2018-03-11T05:34:00.528Z,116.00
2018-03-11T05:35:53.419Z,144.00
2018-03-11T05:36:53.392Z,152.00
2018-03-11T05:38:46.308Z,176.00
2018-03-11T05:39:46.275Z,188.00
2018-03-11T05:41:39.189Z,224.00
2018-03-11T05:42:39.164Z,248.00
2018-03-11T05:44:32.110Z,300.00
2018-03-11T05:45:32.084Z,328.00
2018-03-11T05:47:24.995Z,400.00
2018-03-11T05:48:24.972Z,436.00
2018-03-11T05:50:17.918Z,512.00
2018-03-11T05:51:17.890Z,560.00
2018-03-11T05:53:10.791Z,680.00
2018-03-11T05:54:10.772Z,772.00
2018-03-11T05:56:03.734Z,900.00
2018-03-11T05:57:03.781Z,956.00
2018-03-11T05:58:56.604Z,1024.00
2018-03-11T05:59:56.586Z,1056.00
2018-03-11T06:01:49.528Z,1148.00
2018-03-11T06:02:49.495Z,1180.00
2018-03-11T06:04:42.411Z,1332.00
2018-03-11T06:05:42.385Z,1464.00
2018-03-11T06:07:35.318Z,1672.00
2018-03-11T06:08:35.300Z,1712.00
2018-03-11T06:10:28.221Z,1752.00
2018-03-11T06:11:28.200Z,1840.00
2018-03-11T06:13:21.128Z,2124.00
2018-03-11T06:14:21.108Z,2232.00
2018-03-11T06:16:14.017Z,2464.00
2018-03-11T06:17:13.984Z,2628.00
2018-03-11T06:19:06.891Z,2672.00
2018-03-11T06:20:06.880Z,2608.00
2018-03-11T06:21:59.804Z,2664.00
2018-03-11T06:22:59.775Z,2828.00
2018-03-11T06:24:52.677Z,3156.00
2018-03-11T06:25:52.686Z,3312.00
2018-03-11T06:27:45.677Z,3376.00
2018-03-11T06:28:45.647Z,3320.00
2018-03-11T06:30:38.446Z,3388.00
2018-03-11T06:31:38.433Z,3436.00
2018-03-11T06:33:31.332Z,3692.00
2018-03-11T06:34:31.308Z,3868.00
2018-03-11T06:36:24.192Z,4312.00
2018-03-11T06:37:24.250Z,4512.00
2018-03-11T06:39:17.099Z,4740.00
2018-03-11T06:40:17.076Z,4736.00
2018-03-11T06:42:10.009Z,5036.00
2018-03-11T06:43:09.939Z,5300.00
2018-03-11T06:45:02.861Z,4980.00
2018-03-11T06:46:02.829Z,4704.00
2018-03-11T06:47:55.802Z,4620.00
2018-03-11T06:48:55.798Z,4772.00
2018-03-11T06:50:48.643Z,5248.00
2018-03-11T06:51:48.663Z,5468.00
2018-03-11T06:53:41.577Z,5900.00
2018-03-11T06:54:41.553Z,5924.00
2018-03-11T06:56:34.447Z,5780.00
2018-03-11T06:57:34.436Z,5788.00
2018-03-11T06:59:27.381Z,6264.00
2018-03-11T07:00:27.318Z,6568.00
2018-03-11T07:02:20.229Z,6848.00
2018-03-11T07:03:20.214Z,6780.00
2018-03-11T07:05:13.142Z,6412.00
2018-03-11T07:06:13.121Z,6664.00
2018-03-11T07:08:07.011Z,7296.00
2018-03-11T07:09:07.022Z,7488.00
2018-03-11T07:10:59.969Z,8012.00
2018-03-11T07:11:59.952Z,8360.00
2018-03-11T07:13:52.789Z,8820.00
2018-03-11T07:14:52.774Z,9056.00
2018-03-11T07:16:45.687Z,9408.00
2018-03-11T07:17:45.672Z,9424.00
2018-03-11T07:19:38.566Z,9952.00
2018-03-11T07:20:38.558Z,10216.00
2018-03-11T07:22:31.466Z,11084.00
2018-03-11T07:23:31.440Z,11836.00
2018-03-11T07:25:24.347Z,11520.00
2018-03-11T07:26:24.334Z,12072.00
2018-03-11T07:28:17.263Z,13264.00
2018-03-11T07:29:17.215Z,14512.00
2018-03-11T07:31:10.145Z,12924.00
2018-03-11T07:32:10.134Z,12728.00
2018-03-11T07:34:03.024Z,11432.00
2018-03-11T07:35:03.015Z,12552.00
2018-03-11T07:36:56.038Z,12524.00
2018-03-11T07:37:55.906Z,12952.00
2018-03-11T07:39:48.823Z,12304.00
2018-03-11T07:40:48.805Z,12732.00
2018-03-11T07:42:41.827Z,11832.00
2018-03-11T07:43:41.867Z,12064.00
2018-03-11T07:44:41.804Z,12296.00
2018-03-11T07:45:41.799Z,12524.00
2018-03-11T07:46:41.804Z,12600.00
2018-03-11T07:47:41.826Z,12624.00
2018-03-11T07:48:41.803Z,13084.00
2018-03-11T07:49:41.845Z,13456.00
2018-03-11T07:50:41.793Z,13788.00
2018-03-11T07:51:41.791Z,13808.00
2018-03-11T07:52:41.981Z,13356.00
2018-03-11T07:53:41.790Z,13056.00
2018-03-11T07:54:41.858Z,12188.00
2018-03-11T07:55:41.795Z,12700.00
2018-03-11T07:56:41.798Z,13312.00
2018-03-11T07:57:41.786Z,14196.00
2018-03-11T07:58:41.784Z,15680.00
2018-03-11T07:59:41.778Z,15820.00
2018-03-11T08:00:41.781Z,14864.00
2018-03-11T08:01:42.474Z,14332.00
2018-03-11T08:02:41.771Z,14220.00
2018-03-11T08:03:41.784Z,15392.00
2018-03-11T08:04:41.770Z,16384.00
2018-03-11T08:05:41.777Z,16028.00
2018-03-11T08:06:41.781Z,15268.00
2018-03-11T08:07:41.769Z,15356.00
2018-03-11T08:08:41.766Z,14812.00
2018-03-11T08:09:41.776Z,15004.00
2018-03-11T08:10:41.775Z,15784.00
2018-03-11T08:11:41.760Z,17696.00
2018-03-11T08:12:41.757Z,18784.00
2018-03-11T08:13:41.755Z,16608.00
2018-03-11T08:14:41.766Z,16368.00
2018-03-11T08:15:41.769Z,16800.00
2018-03-11T08:16:41.761Z,15836.00
2018-03-11T08:17:41.764Z,15636.00
2018-03-11T08:18:41.779Z,16160.00
2018-03-11T08:19:41.759Z,18240.00
2018-03-11T08:20:41.758Z,18496.00
2018-03-11T08:21:41.779Z,17024.00
2018-03-11T08:22:41.760Z,17344.00
2018-03-11T08:23:41.780Z,15752.00
2018-03-11T08:24:41.760Z,16364.00
2018-03-11T08:25:41.789Z,17568.00
2018-03-11T08:26:41.753Z,16960.00
2018-03-11T08:27:41.760Z,16636.00
2018-03-11T08:28:41.755Z,16416.00
2018-03-11T08:29:41.772Z,16928.00
2018-03-11T08:30:41.755Z,17152.00
2018-03-11T08:31:41.763Z,16732.00
2018-03-11T08:32:41.763Z,16832.00
2018-03-11T08:33:41.752Z,17152.00
2018-03-11T08:34:41.779Z,18560.00
2018-03-11T08:35:41.768Z,20096.00
2018-03-11T08:36:41.771Z,21504.00
2018-03-11T08:37:41.761Z,17760.00
2018-03-11T08:38:41.758Z,16752.00
2018-03-11T08:39:41.794Z,16756.00
2018-03-11T08:40:41.800Z,16488.00
2018-03-11T08:41:41.751Z,17216.00
2018-03-11T08:42:41.760Z,18272.00
2018-03-11T08:43:41.760Z,18688.00
2018-03-11T08:44:41.760Z,17728.00
2018-03-11T08:45:41.764Z,16480.00
2018-03-11T08:46:41.764Z,16032.00
2018-03-11T08:47:41.763Z,15940.00
2018-03-11T08:48:41.763Z,16072.00
2018-03-11T08:49:41.772Z,16280.00
2018-03-11T08:50:41.770Z,16264.00
2018-03-11T08:51:41.773Z,15952.00
2018-03-11T08:52:41.762Z,15532.00
2018-03-11T08:53:41.787Z,15068.00
2018-03-11T08:54:41.776Z,14648.00
2018-03-11T08:55:41.801Z,14348.00
2018-03-11T08:56:41.764Z,14048.00
2018-03-11T08:57:41.759Z,13964.00
2018-03-11T08:58:41.766Z,14152.00
2018-03-11T08:59:41.838Z,14224.00
2018-03-11T09:00:41.785Z,14348.00
2018-03-11T09:01:41.759Z,14724.00
2018-03-11T09:02:41.753Z,15516.00
2018-03-11T09:03:41.757Z,16584.00
2018-03-11T09:04:41.755Z,17856.00
2018-03-11T09:05:41.756Z,18784.00
2018-03-11T09:06:41.649Z,19488.00
2018-03-11T09:07:41.772Z,19296.00
2018-03-11T09:08:41.832Z,18432.00
2018-03-11T09:09:41.789Z,17856.00
2018-03-11T09:10:41.776Z,17952.00
2018-03-11T09:11:41.761Z,18112.00
2018-03-11T09:12:41.818Z,18464.00
2018-03-11T09:13:41.754Z,18496.00
2018-03-11T09:14:41.741Z,19040.00
2018-03-11T09:15:41.808Z,19936.00
2018-03-11T09:16:41.751Z,21280.00
2018-03-11T09:17:41.814Z,22336.00
2018-03-11T09:18:41.747Z,22112.00
2018-03-11T09:19:41.745Z,21600.00
2018-03-11T09:20:41.743Z,21088.00
2018-03-11T09:21:41.747Z,20768.00
2018-03-11T09:22:41.748Z,20480.00
2018-03-11T09:23:41.761Z,20160.00
2018-03-11T09:24:41.752Z,19744.00
2018-03-11T09:25:41.789Z,19296.00
2018-03-11T09:26:41.769Z,18880.00
2018-03-11T09:27:41.806Z,18560.00
2018-03-11T09:28:41.748Z,18176.00
2018-03-11T09:29:41.762Z,17856.00
2018-03-11T09:30:41.745Z,17504.00
2018-03-11T09:31:41.739Z,17248.00
2018-03-11T09:32:41.745Z,16960.00
2018-03-11T09:33:41.742Z,16444.00
2018-03-11T09:34:41.742Z,15956.00
2018-03-11T09:35:41.744Z,15480.00
2018-03-11T09:36:41.747Z,15252.00
2018-03-11T09:37:41.745Z,15364.00
2018-03-11T09:38:41.743Z,15364.00
2018-03-11T09:39:41.796Z,14936.00
2018-03-11T09:40:41.790Z,14344.00
2018-03-11T09:41:41.755Z,13736.00
2018-03-11T09:42:41.742Z,13220.00
2018-03-11T09:43:41.756Z,12840.00
2018-03-11T09:44:41.740Z,12568.00
2018-03-11T09:45:41.760Z,12428.00
2018-03-11T09:46:41.779Z,12408.00
2018-03-11T09:47:41.792Z,12392.00
2018-03-11T09:48:41.752Z,12288.00
2018-03-11T09:49:41.745Z,11968.00
2018-03-11T09:50:41.738Z,11640.00
2018-03-11T09:51:41.735Z,11540.00
2018-03-11T09:52:41.734Z,11696.00
2018-03-11T09:53:41.729Z,12008.00
2018-03-11T09:54:41.729Z,12340.00
2018-03-11T09:55:41.784Z,12616.00
2018-03-11T09:56:41.728Z,12860.00
2018-03-11T09:57:41.737Z,13128.00
2018-03-11T09:58:41.758Z,13428.00
2018-03-11T09:59:41.748Z,13672.00
2018-03-11T10:00:41.732Z,13828.00
2018-03-11T10:01:41.731Z,13992.00
2018-03-11T10:02:41.737Z,14328.00
2018-03-11T10:03:41.727Z,14840.00
2018-03-11T10:04:41.739Z,15264.00
2018-03-11T10:05:41.724Z,15296.00
2018-03-11T10:06:41.727Z,15012.00
2018-03-11T10:07:41.725Z,14724.00
2018-03-11T10:08:41.740Z,14672.00
2018-03-11T10:09:41.740Z,14768.00
2018-03-11T10:10:41.742Z,14808.00
2018-03-11T10:11:41.733Z,14772.00
2018-03-11T10:12:41.723Z,14840.00
2018-03-11T10:13:41.733Z,15136.00
2018-03-11T10:14:41.720Z,15652.00
2018-03-11T10:15:41.721Z,16224.00
2018-03-11T10:16:41.752Z,16756.00
2018-03-11T10:17:41.833Z,17216.00
2018-03-11T10:18:41.750Z,17248.00
2018-03-11T10:19:41.718Z,17088.00
2018-03-11T10:20:41.721Z,16860.00
2018-03-11T10:21:41.733Z,17056.00
2018-03-11T10:22:41.721Z,17440.00
2018-03-11T10:23:41.729Z,18432.00
2018-03-11T10:24:41.723Z,19456.00
2018-03-11T10:25:41.784Z,20032.00
2018-03-11T10:26:41.714Z,20000.00
2018-03-11T10:27:41.717Z,19616.00
2018-03-11T10:28:41.718Z,19008.00
2018-03-11T10:29:41.780Z,18560.00
2018-03-11T10:30:41.816Z,18336.00
2018-03-11T10:31:41.716Z,18304.00
2018-03-11T10:32:41.720Z,18432.00
2018-03-11T10:33:41.720Z,18336.00
2018-03-11T10:34:41.723Z,18112.00
2018-03-11T10:35:41.723Z,18048.00
2018-03-11T10:36:41.724Z,18272.00
2018-03-11T10:37:41.722Z,18528.00
2018-03-11T10:38:41.727Z,18560.00
2018-03-11T10:39:41.729Z,18368.00
2018-03-11T10:40:41.800Z,17952.00
2018-03-11T10:41:41.733Z,17568.00
2018-03-11T10:42:41.726Z,17312.00
2018-03-11T10:43:41.723Z,17120.00
2018-03-11T10:44:41.719Z,17056.00
2018-03-11T10:45:41.717Z,17216.00
2018-03-11T10:46:41.719Z,17440.00
2018-03-11T10:47:41.712Z,17536.00
2018-03-11T10:48:41.757Z,17472.00
2018-03-11T10:49:41.720Z,17376.00
2018-03-11T10:50:41.746Z,17312.00
2018-03-11T10:51:41.718Z,17152.00
2018-03-11T10:52:41.865Z,17024.00
2018-03-11T10:53:41.747Z,17120.00
2018-03-11T10:54:41.716Z,17600.00
2018-03-11T10:55:41.728Z,18304.00
2018-03-11T10:56:41.722Z,19008.00
2018-03-11T10:57:41.720Z,19616.00
2018-03-11T10:58:41.725Z,20000.00
2018-03-11T10:59:41.742Z,20032.00
2018-03-11T11:00:41.715Z,19744.00
2018-03-11T11:01:41.718Z,19040.00
2018-03-11T11:02:41.723Z,17920.00
2018-03-11T11:03:41.714Z,16584.00
2018-03-11T11:04:41.719Z,15556.00
2018-03-11T11:05:41.716Z,14924.00
2018-03-11T11:06:41.760Z,14756.00
2018-03-11T11:07:41.714Z,14876.00
2018-03-11T11:08:41.730Z,15096.00
2018-03-11T11:09:41.767Z,15296.00
2018-03-11T11:10:41.762Z,15376.00
2018-03-11T11:11:41.703Z,15488.00
2018-03-11T11:12:41.725Z,15668.00
2018-03-11T11:13:41.712Z,15732.00
2018-03-11T11:14:41.791Z,15572.00
2018-03-11T11:15:41.731Z,15256.00
2018-03-11T11:16:41.716Z,14904.00
2018-03-11T11:17:41.723Z,14628.00
2018-03-11T11:18:41.701Z,14472.00
2018-03-11T11:19:41.713Z,14308.00
2018-03-11T11:20:41.710Z,14080.00
2018-03-11T11:21:41.709Z,13884.00
2018-03-11T11:22:41.716Z,13744.00
2018-03-11T11:23:41.955Z,13660.00
2018-03-11T11:24:41.714Z,13704.00
2018-03-11T11:25:41.731Z,13848.00
2018-03-11T11:26:41.710Z,13988.00
2018-03-11T11:27:41.718Z,13996.00
2018-03-11T11:28:42.513Z,13828.00
2018-03-11T11:29:41.707Z,13536.00
2018-03-11T11:30:41.743Z,13216.00
2018-03-11T11:31:41.705Z,12920.00
2018-03-11T11:32:41.710Z,12580.00
2018-03-11T11:33:41.701Z,12200.00
2018-03-11T11:34:41.705Z,11892.00
2018-03-11T11:35:41.701Z,11664.00
2018-03-11T11:36:41.701Z,11412.00
2018-03-11T11:37:41.702Z,11240.00
2018-03-11T11:38:41.709Z,11152.00
2018-03-11T11:39:41.723Z,11228.00
2018-03-11T11:40:41.714Z,11448.00
2018-03-11T11:41:41.704Z,11656.00
2018-03-11T11:42:41.729Z,11616.00
2018-03-11T11:43:41.692Z,11376.00
2018-03-11T11:44:41.696Z,11076.00
2018-03-11T11:45:41.606Z,10816.00
2018-03-11T11:46:41.689Z,10720.00
2018-03-11T11:47:41.697Z,10724.00
2018-03-11T11:48:41.707Z,10740.00
2018-03-11T11:49:41.683Z,10720.00
2018-03-11T11:50:41.674Z,10504.00
2018-03-11T11:51:41.692Z,10040.00
2018-03-11T11:52:41.687Z,9568.00
2018-03-11T11:53:42.237Z,9192.00
2018-03-11T11:54:41.686Z,8812.00
2018-03-11T11:55:41.698Z,8452.00
2018-03-11T11:56:41.686Z,8140.00
2018-03-11T11:57:41.688Z,8056.00
2018-03-11T11:58:41.670Z,8168.00
2018-03-11T11:59:41.672Z,8248.00
2018-03-11T12:00:41.693Z,8204.00
2018-03-11T12:01:41.676Z,8144.00
2018-03-11T12:02:41.688Z,8288.00
2018-03-11T12:03:41.673Z,8596.00
2018-03-11T12:04:41.694Z,8728.00
2018-03-11T12:05:41.663Z,8464.00
2018-03-11T12:06:41.686Z,7972.00
2018-03-11T12:07:41.684Z,7520.00
2018-03-11T12:08:41.654Z,7288.00
2018-03-11T12:09:41.732Z,7260.00
2018-03-11T12:10:41.651Z,7312.00
2018-03-11T12:11:41.665Z,7288.00
2018-03-11T12:12:41.646Z,7156.00
2018-03-11T12:13:41.650Z,7004.00
2018-03-11T12:14:41.637Z,7004.00
2018-03-11T12:15:41.678Z,7216.00
2018-03-11T12:16:41.633Z,7520.00
2018-03-11T12:17:41.662Z,7808.00
2018-03-11T12:18:41.635Z,8028.00
2018-03-11T12:19:41.636Z,8252.00
2018-03-11T12:20:41.670Z,8440.00
2018-03-11T12:21:41.634Z,8488.00
2018-03-11T12:22:41.613Z,8564.00
2018-03-11T12:23:41.626Z,8876.00
2018-03-11T12:24:41.621Z,9552.00
2018-03-11T12:25:41.647Z,10324.00
2018-03-11T12:26:41.618Z,10828.00
2018-03-11T12:27:41.614Z,10916.00
2018-03-11T12:28:41.610Z,10732.00
2018-03-11T12:29:41.597Z,10564.00
2018-03-11T12:30:41.608Z,10608.00
2018-03-11T12:31:41.605Z,10844.00
2018-03-11T12:32:41.603Z,11044.00
2018-03-11T12:33:41.592Z,11040.00
2018-03-11T12:34:41.609Z,10768.00
2018-03-11T12:35:41.592Z,10312.00
2018-03-11T12:36:41.582Z,9816.00
2018-03-11T12:37:41.591Z,9444.00
2018-03-11T12:38:41.578Z,9400.00
2018-03-11T12:39:41.633Z,9500.00
2018-03-11T12:40:41.644Z,9532.00
2018-03-11T12:41:41.598Z,9332.00
2018-03-11T12:42:41.590Z,9132.00
2018-03-11T12:43:41.569Z,9076.00
2018-03-11T12:44:41.571Z,9008.00
2018-03-11T12:45:41.569Z,8572.00
2018-03-11T12:46:41.568Z,7796.00
2018-03-11T12:47:41.564Z,7008.00
2018-03-11T12:48:41.461Z,6460.00
2018-03-11T12:49:41.562Z,6224.00
2018-03-11T12:50:41.606Z,6348.00
2018-03-11T12:51:41.557Z,6724.00
2018-03-11T12:52:41.556Z,7164.00
2018-03-11T12:53:41.555Z,7508.00
2018-03-11T12:54:41.546Z,7656.00
2018-03-11T12:55:41.564Z,7688.00
2018-03-11T12:56:41.545Z,7708.00
2018-03-11T12:57:41.544Z,8056.00
2018-03-11T12:58:41.538Z,9100.00
2018-03-11T12:59:41.537Z,10688.00
2018-03-11T13:00:41.533Z,12024.00
2018-03-11T13:01:41.548Z,12360.00
2018-03-11T13:02:41.530Z,11472.00
2018-03-11T13:03:41.527Z,10060.00
2018-03-11T13:04:42.257Z,9228.00
2018-03-11T13:05:41.528Z,9712.00
2018-03-11T13:06:41.514Z,11128.00
2018-03-11T13:07:41.521Z,12488.00
2018-03-11T13:08:41.515Z,12888.00
2018-03-11T13:09:41.522Z,12272.00
2018-03-11T13:10:41.528Z,11300.00
2018-03-11T13:11:41.511Z,10668.00
2018-03-11T13:12:41.505Z,10348.00
2018-03-11T13:13:41.523Z,10004.00
2018-03-11T13:14:41.509Z,9592.00
2018-03-11T13:15:41.493Z,9160.00
2018-03-11T13:16:41.542Z,8804.00
2018-03-11T13:17:41.495Z,8476.00
2018-03-11T13:18:41.506Z,8092.00
2018-03-11T13:19:41.491Z,7772.00
2018-03-11T13:20:41.493Z,7648.00
2018-03-11T13:21:41.490Z,7756.00
2018-03-11T13:22:41.483Z,7876.00
2018-03-11T13:23:41.483Z,7812.00
2018-03-11T13:24:41.482Z,7648.00
2018-03-11T13:25:41.505Z,7680.00
2018-03-11T13:26:41.482Z,8000.00
2018-03-11T13:27:41.474Z,8308.00
2018-03-11T13:28:41.478Z,8412.00
2018-03-11T13:29:41.472Z,8256.00
2018-03-11T13:30:41.471Z,8072.00
2018-03-11T13:31:41.476Z,7916.00
2018-03-11T13:32:41.465Z,7816.00
2018-03-11T13:33:41.463Z,7628.00
2018-03-11T13:34:41.459Z,7372.00
2018-03-11T13:35:41.460Z,7056.00
2018-03-11T13:36:41.464Z,6796.00
2018-03-11T13:37:41.458Z,6676.00
2018-03-11T13:38:41.455Z,6820.00
2018-03-11T13:39:41.483Z,7136.00
2018-03-11T13:40:41.512Z,7664.00
2018-03-11T13:41:41.458Z,8460.00
2018-03-11T13:42:41.443Z,9480.00
2018-03-11T13:43:41.450Z,10484.00
2018-03-11T13:44:41.442Z,11112.00
2018-03-11T13:45:41.439Z,11072.00
2018-03-11T13:46:41.463Z,10464.00
2018-03-11T13:47:41.437Z,9528.00
2018-03-11T13:48:41.422Z,8572.00
2018-03-11T13:49:41.463Z,7872.00
2018-03-11T13:50:41.430Z,7444.00
2018-03-11T13:51:41.423Z,7192.00
2018-03-11T13:52:41.424Z,6972.00
2018-03-11T13:53:41.432Z,6760.00
2018-03-11T13:54:41.420Z,6576.00
2018-03-11T13:55:41.459Z,6440.00
2018-03-11T13:56:41.465Z,6440.00
2018-03-11T13:57:41.410Z,6552.00
2018-03-11T13:58:41.432Z,6696.00
2018-03-11T13:59:41.408Z,6796.00
2018-03-11T14:00:41.408Z,6760.00
2018-03-11T14:01:41.393Z,6652.00
2018-03-11T14:02:41.396Z,6544.00
2018-03-11T14:03:41.399Z,6508.00
2018-03-11T14:04:41.398Z,6588.00
2018-03-11T14:05:41.405Z,6744.00
2018-03-11T14:06:41.413Z,7016.00
2018-03-11T14:07:41.387Z,7412.00
2018-03-11T14:08:41.391Z,7864.00
2018-03-11T14:09:42.016Z,8184.00
2018-03-11T14:10:41.978Z,8248.00
2018-03-11T14:11:41.387Z,8040.00
2018-03-11T14:12:41.385Z,7692.00
2018-03-11T14:13:41.372Z,7228.00
2018-03-11T14:14:41.368Z,6816.00
2018-03-11T14:15:41.402Z,6520.00
2018-03-11T14:16:41.379Z,6424.00
2018-03-11T14:17:41.378Z,6536.00
2018-03-11T14:18:41.386Z,6808.00
2018-03-11T14:19:41.383Z,7160.00
2018-03-11T14:20:41.357Z,7420.00
2018-03-11T14:21:41.355Z,7588.00
2018-03-11T14:22:41.348Z,7624.00
2018-03-11T14:23:41.344Z,7576.00
2018-03-11T14:24:41.335Z,7464.00
2018-03-11T14:25:41.382Z,7304.00
2018-03-11T14:26:41.342Z,7148.00
2018-03-11T14:27:41.425Z,7012.00
2018-03-11T14:28:41.404Z,6852.00
2018-03-11T14:29:41.340Z,6704.00
2018-03-11T14:30:41.475Z,6544.00
2018-03-11T14:31:41.324Z,6372.00
2018-03-11T14:32:41.326Z,6188.00